Flight Track Log - Related Links

Times and Time Zones

All times are in EST time to prevent confusion due to time zone crossing. See the N15FS flight status page for this flight to view local times or setup timezone preferences in your user account.

Time Position Orientation Groundspeed Altitude Reporting Facility
EST Latitude Longitude Course Direction KTS MPH feet Rate Location/Type
Fri 06:56:15 PM 40.4667 -105.0167 37° Northeast 115 132 5,600  Level Denver TRACON
Fri 06:57:15 PM 40.4833 -105.0000 37° Northeast 130 150 6,200 567 Climbing Denver TRACON
Fri 06:58:22 PM 40.4622 -104.9650 128° Southeast 126 145 6,800 419 Climbing Denver Center
Fri 06:59:24 PM 40.4394 -104.9206 124° Southeast 121 139 7,100 48 Climbing Denver Center
Fri 07:00:26 PM 40.4158 -104.8764 125° Southeast 135 155 6,900 -97 Descending Denver Center
Fri 07:01:28 PM 40.3947 -104.8408 128° Southeast 128 147 6,900 49 Level Denver Center
Fri 07:02:29 PM 40.3581 -104.8478 188° South 132 152 7,000 49 Climbing Denver Center
Fri 07:03:31 PM 40.3342 -104.8894 233° Southwest 149 171 7,000  Level Denver Center
Fri 07:04:33 PM 40.3650 -104.9122 331° Northwest 136 157 7,000  Level Denver Center
Fri 07:05:35 PM 40.4064 -104.9153 357° North 138 159 7,000 -49 Level Denver Center
Fri 07:06:36 PM 40.4428 -104.8967 21° North 140 161 6,900  Descending Denver Center
Fri 07:07:38 PM 40.4731 -104.8681 36° Northeast 140 161 7,000 -145 Climbing Denver Center
Fri 07:08:40 PM 40.4639 -104.8122 102° East 146 168 6,600 -339 Descending Denver Center
Fri 07:09:42 PM 40.4531 -104.7603 105° East 147 169 6,300 -390 Descending Denver Center
Fri 07:10:43 PM 40.4458 -104.7158 102° East 132 152 5,800 -537 Descending Denver Center
Fri 07:11:45 PM 40.4361 -104.6750 107° East 114 131 5,200 -387 Descending Denver Center
Fri 07:12:47 PM 40.4281 -104.6364 105° East 111 128 5,000 194 Descending Denver Center
Fri 07:13:49 PM 40.4211 -104.5908 101° East 116 133 5,600 532 Climbing Denver Center
Fri 07:14:51 PM 40.3978 -104.5592 134° Southeast 125 144 6,100 488 Climbing Denver Center
Fri 07:15:52 PM 40.3717 -104.5303 140° Southeast 123 142 6,600 537 Climbing Denver Center
Fri 07:16:54 PM 40.3400 -104.5036 147° Southeast 125 144 7,200 484 Climbing Denver Center
Fri 07:17:56 PM 40.3117 -104.4794 147° Southeast 123 142 7,600 387 Climbing Denver Center
Fri 07:18:58 PM 40.2808 -104.4539 148° Southeast 129 148 8,000 195 Climbing Denver Center
Fri 07:19:59 PM 40.2422 -104.4225 148° Southeast 148 170 8,000  Level Denver Center
Fri 07:21:01 PM 40.2075 -104.3875 142° Southeast 156 180 8,000  Level Denver Center
Fri 07:22:03 PM 40.1678 -104.3553 148° Southeast 156 180 8,000 49 Level Denver Center
Fri 07:23:04 PM 40.1378 -104.3367 155° Southeast 155 178 8,100  Climbing Denver Center
Fri 07:24:07 PM 40.0925 -104.2989 147° Southeast 156 180 8,000 -242 Descending Denver Center
Fri 07:25:08 PM 40.0456 -104.2806 163° South 162 186 7,600 -341 Descending Denver Center
Fri 07:26:10 PM 40.0014 -104.2628 163° South 165 190 7,300 -242 Descending Denver Center
Fri 07:27:12 PM 39.9578 -104.2550 172° South 160 184 7,100 -48 Descending Denver Center
Fri 07:28:14 PM 39.9125 -104.2531 178° South 153 176 7,200 48 Climbing Denver Center
Fri 07:29:16 PM 39.8719 -104.2528 180° South 147 169 7,200 -49 Level Denver Center
Fri 07:30:17 PM 39.8269 -104.2522 179° South 150 173 7,100  Descending Denver Center
Fri 07:31:19 PM 39.7914 -104.2653 196° South 162 186 7,200 48 Climbing Denver Center
Fri 07:32:21 PM 39.7900 -104.3136 268° West 135 155 7,200  Level Denver Center
Fri 07:33:23 PM 39.7914 -104.3639 272° West 130 150 7,200  Level Denver Center
Fri 07:34:25 PM 39.7903 -104.4106 268° West 130 150 7,200 -98 Level Denver Center
Fri 07:35:26 PM 39.7917 -104.4558 272° West 125 144 7,000 -390 Descending Denver Center
Fri 07:36:28 PM 39.7919 -104.5003 270° West 113 130 6,400 -97 Descending Denver Center
Fri 07:37:30 PM 39.7658 -104.4997 179° South 121 139 6,800 387 Climbing Denver Center
Fri 07:38:32 PM 39.7294 -104.4644 143° Southeast 150 173 7,200 439 Climbing Denver Center
Fri 07:39:33 PM 39.7008 -104.4325 139° Southeast 137 158 7,700 439 Climbing Denver Center
Fri 07:40:35 PM 39.6861 -104.3922 115° Southeast 123 142 8,100 194 Climbing Denver Center
Fri 07:41:37 PM 39.6697 -104.3458 115° Southeast 131 151 8,100 242 Level Denver Center
Fri 07:42:39 PM 39.6308 -104.3444 178° South 146 168 8,600 435 Climbing Denver Center
Fri 07:43:41 PM 39.5894 -104.3467 182° South 139 160 9,000 194 Climbing Denver Center
Fri 07:44:43 PM 39.5472 -104.3483 182° South 149 171 9,000 48 Level Denver Center
Fri 07:45:45 PM 39.5044 -104.3533 185° South 154 177 9,100 49 Climbing Denver Center
Fri 07:46:46 PM 39.4569 -104.3542 181° South 158 182 9,100 -49 Level Denver Center
Fri 07:47:48 PM 39.4131 -104.3636 189° South 160 184 9,000  Descending Denver Center
Fri 07:48:50 PM 39.3794 -104.4078 225° Southwest 166 191 9,100  Climbing Denver Center
Fri 07:49:52 PM 39.3572 -104.4603 241° Southwest 166 191 9,000 -48 Descending Denver Center
Fri 07:50:54 PM 39.3375 -104.5142 245° Southwest 166 191 9,000  Level Denver Center
Fri 07:51:56 PM 39.3272 -104.5769 258° West 166 191 9,000  Level Denver Center
Fri 07:52:58 PM 39.3136 -104.6333 253° West 166 191 9,000  Level Denver Center
Fri 07:54:00 PM 39.3031 -104.6947 257° West 163 188 9,000 48 Level Denver Center
Fri 07:55:02 PM 39.3039 -104.7514 271° West 159 183 9,100  Climbing Denver Center
Fri 07:56:04 PM 39.3228 -104.8003 297° West 155 178 9,000 -97 Descending Denver Center
Fri 07:57:06 PM 39.3628 -104.8244 335° Northwest 146 168 8,900 -244 Descending Denver Center
Fri 07:58:07 PM 39.4006 -104.8433 339° North 145 167 8,500 -390 Descending Denver Center
Fri 07:59:09 PM 39.4381 -104.8436 360° North 127 146 8,100 -339 Descending Denver Center
Fri 08:00:11 PM 39.4678 -104.8436 360° North 109 125 7,800 -387 Descending Denver Center
Fri 08:01:13 PM 39.4958 -104.8464 356° North 102 117 7,300 -581 Descending Denver Center
Fri 08:02:15 PM 39.5289 -104.8478 358° North 111 128 6,600 -532 Descending Denver Center
Fri 08:03:17 PM 39.5569 -104.8497 357° North 103 119 6,200 145 Descending Denver Center
Fri 08:04:19 PM 39.5897 -104.8553 353° North 112 129 6,900 677 Climbing Denver Center
Fri 08:05:21 PM 39.6208 -104.8581 356° North 112 129 7,600 532 Climbing Denver Center
Fri 08:06:23 PM 39.6567 -104.8617 356° North 120 138 8,000 242 Climbing Denver Center
Fri 08:07:25 PM 39.6922 -104.8731 346° North 130 150 8,100  Climbing Denver Center
Fri 08:08:27 PM 39.7294 -104.8986 332° Northwest 149 171 8,000 -97 Descending Denver Center
Fri 08:09:29 PM 39.7694 -104.9189 339° North 141 162 7,900 -145 Descending Denver Center
Fri 08:10:31 PM 39.8075 -104.9383 339° North 147 169 7,700 -387 Descending Denver Center
Fri 08:11:33 PM 39.8333 -104.9719 315° West 132 152 7,100 -339 Descending Denver Center
Fri 08:12:35 PM 39.8517 -105.0083 303° West 113 130 7,000 -145 Descending Denver Center
Fri 08:13:37 PM 39.8694 -105.0403 306° West 110 127 6,800 -435 Descending Denver Center
Fri 08:14:39 PM 39.8886 -105.0778 304° West 114 131 6,100 -387 Descending Denver Center
Fri 08:15:41 PM 39.9036 -105.1061 305° West 97 112 6,000 390 Descending Denver Center
Fri 08:16:42 PM 39.9311 -105.0883 26° Northeast 113 130 6,900 732 Climbing Denver Center
Fri 08:17:44 PM 39.9550 -105.0633 39° Northeast 110 127 7,500 581 Climbing Denver Center
Fri 08:18:46 PM 39.9786 -105.0369 41° Northeast 113 130 8,100 242 Climbing Denver Center
Fri 08:19:48 PM 39.9969 -104.9892 63° Northeast 136 157 8,000  Descending Denver Center
Fri 08:20:50 PM 40.0144 -104.9428 64° Northeast 144 166 8,100  Climbing Denver Center
Fri 08:21:52 PM 40.0414 -104.8972 52° Northeast 148 170 8,000 -48 Descending Denver Center
Fri 08:22:54 PM 40.0642 -104.8519 57° Northeast 149 171 8,000 -48 Level Denver Center
Fri 08:23:56 PM 40.0900 -104.8114 50° Northeast 146 168 7,900 -48 Descending Denver Center
Fri 08:24:58 PM 40.1181 -104.7703 48° Northeast 141 162 7,900 -242 Level Denver Center
Fri 08:26:00 PM 40.1447 -104.7294 49° Northeast 147 169 7,400 -484 Descending Denver Center
Fri 08:27:02 PM 40.1747 -104.6856 48° Northeast 150 173 6,900 -145 Descending Denver Center
Fri 08:28:04 PM 40.2053 -104.6656 27° Northeast 122 140 7,100 48 Climbing Denver Center
Fri 08:29:06 PM 40.2342 -104.6481 25° Northeast 116 133 7,000 -48 Descending Denver Center
Fri 08:30:08 PM 40.2644 -104.6256 30° Northeast 116 133 7,000  Level Denver Center
Fri 08:31:10 PM 40.2958 -104.6250 North 114 131 7,000 -97 Level Denver Center
Fri 08:32:12 PM 40.3303 -104.6264 358° North 116 133 6,800 -435 Descending Denver Center
Fri 08:33:14 PM 40.3619 -104.6281 358° North 115 132 6,100 -677 Descending Denver Center
Fri 08:34:16 PM 40.3947 -104.6289 359° North 111 128 5,400 -532 Descending Denver Center
Fri 08:35:18 PM 40.4244 -104.6317 356° North 103 119 5,000  Descending Denver Center
Fri 08:36:20 PM 40.4522 -104.6317 360° North 104 120 5,400 532 Climbing Denver Center
Fri 08:37:22 PM 40.4728 -104.5953 53° Northeast 116 133 6,100 677 Climbing Denver Center
Fri 08:38:24 PM 40.4936 -104.5636 49° Northeast 116 133 6,800 435 Climbing Denver Center
Fri 08:39:26 PM 40.5239 -104.5522 16° North 112 129 7,000 97 Climbing Denver Center
Fri 08:40:28 PM 40.5458 -104.5367 28° Northeast 142 163 7,000 48 Level Denver Center
Fri 08:41:30 PM 40.5119 -104.5419 187° South 133 153 7,100 48 Climbing Denver Center
Fri 08:42:32 PM 40.5039 -104.5842 256° West 137 158 7,100 -49 Level Denver Center
Fri 08:43:33 PM 40.5356 -104.5678 21° North 127 146 7,000 -49 Descending Denver Center
Fri 08:44:35 PM 40.5592 -104.5358 46° Northeast 139 160 7,000  Level Denver Center
Fri 08:45:37 PM 40.5219 -104.5425 188° South 141 162 7,000 48 Level Denver Center
Fri 08:46:39 PM 40.5031 -104.5789 236° Southwest 142 163 7,100  Climbing Denver Center
Fri 08:47:41 PM 40.5364 -104.5619 21° North 133 153 7,000 -48 Descending Denver Center
Fri 08:48:43 PM 40.5536 -104.5289 56° Northeast 154 177 7,000  Level Denver Center
Fri 08:49:45 PM 40.5169 -104.5433 197° South 147 169 7,000  Level Denver Center
Fri 08:50:47 PM 40.4933 -104.5828 232° Southwest 140 161 7,000 194 Level Denver Center
Fri 08:51:49 PM 40.4892 -104.6356 264° West 136 157 7,400 194 Climbing Denver Center
Fri 08:52:51 PM 40.4869 -104.6889 267° West 144 166 7,400 -48 Level Denver Center
Fri 08:53:53 PM 40.4789 -104.7464 260° West 149 171 7,300  Descending Denver Center
Fri 08:54:55 PM 40.4733 -104.8011 262° West 151 174 7,400  Climbing Denver Center
Fri 08:55:57 PM 40.4672 -104.8533 261° West 148 170 7,300 -339 Descending Denver Center
Fri 08:56:59 PM 40.4617 -104.9067 262° West 139 160 6,700 -439 Descending Denver Center
Fri 08:58:00 PM 40.4572 -104.9514 263° West 129 148 6,400 -537 Descending Denver Center
Fri 08:59:02 PM 40.4517 -104.9972 261° West 120 138 5,600 -131 Descending Denver Center
Fri 09:00:17 PM 40.4494 -105.0469 267° West 116 133 6,100 529 Climbing Denver Center
Fri 09:01:18 PM 40.4786 -105.0328 20° North 123 142 6,800 780 Climbing Denver Center
Fri 09:02:20 PM 40.5042 -104.9994 45° Northeast 121 139 7,700 529 Climbing Denver Center
Fri 09:03:34 PM 40.5383 -104.9625 39° Northeast 129 148 8,000 132 Climbing Denver Center
Fri 09:04:36 PM 40.5681 -104.9208 47° Northeast 150 173 8,000 -48 Level Denver Center
Fri 09:05:38 PM 40.6019 -104.8806 42° Northeast 153 176 7,900  Descending Denver Center
Fri 09:06:41 PM 40.6372 -104.8622 22° Northeast 147 169 8,000 48 Climbing Denver Center
Fri 09:07:42 PM 40.6697 -104.8703 349° North 130 150 8,000  Level Denver Center
Fri 09:08:44 PM 40.6653 -104.9375 265° West 163 188 8,000  Level Denver Center
Fri 09:09:45 PM 40.6631 -104.9919 267° West 152 175 8,000 -98 Level Denver Center
Fri 09:10:47 PM 40.6558 -105.0506 261° West 152 175 7,800 -145 Descending Denver Center
Fri 09:11:49 PM 40.6281 -105.0792 218° Southwest 125 144 7,700 -339 Descending Denver Center
Fri 09:12:51 PM 40.5947 -105.0853 188° South 123 142 7,100 -242 Descending Denver Center
Fri 09:13:53 PM 40.5658 -105.0689 157° South 112 129 7,200 97 Climbing Denver Center

Login

Don't have an account? Register now (free) for customized features, flight alerts, and more!